Time;durP1;ratioP1;P1;durP2;ratioP2;P2;SDS_P1;SDS_P2;PMS_P1;PMS_P2;Temp;Humidity;BMP_temperature;BMP_pressure;BME280_temperature;BME280_humidity;BME280_pressure;Samples;Min_cycle;Max_cycle;Signal;HPM_P1;HPM_P2
2022/03/30 00:01:09;;;;;;;4.95;2.30;;;;;;;-148.56;100.00;61375.16;4959056;28;20030;-28
2022/03/30 00:03:34;;;;;;;5.68;2.17;;;;;;;-148.56;100.00;61375.16;4962023;28;20493;-34
2022/03/30 00:06:00;;;;;;;4.45;2.28;;;;;;;-148.56;100.00;61375.16;4966327;28;20041;-34
2022/03/30 00:08:25;;;;;;;3.38;2.30;;;;;;;-148.56;100.00;61375.16;4970621;28;20051;-35
2022/03/30 00:10:51;;;;;;;4.45;2.40;;;;;;;-148.56;100.00;61375.16;4965285;28;20033;-30
2022/03/30 00:13:17;;;;;;;3.33;2.05;;;;;;;-148.56;100.00;61375.16;4964528;28;20033;-28
2022/03/30 00:15:43;;;;;;;3.30;2.20;;;;;;;-148.56;100.00;61375.16;4969513;28;20113;-32
2022/03/30 00:18:08;;;;;;;4.75;2.65;;;;;;;-148.56;100.00;61375.16;4969874;28;20457;-31
2022/03/30 00:20:34;;;;;;;4.22;2.35;;;;;;;-148.56;100.00;61375.16;4964780;28;20057;-35
2022/03/30 00:22:59;;;;;;;5.20;2.00;;;;;;;-148.56;100.00;61375.16;4962651;28;20026;-28
2022/03/30 00:25:25;;;;;;;3.05;2.28;;;;;;;-148.56;100.00;61375.16;4965680;28;20052;-32
2022/03/30 00:27:50;;;;;;;3.00;1.90;;;;;;;-148.56;100.00;61375.16;4963732;28;20642;-30
2022/03/30 00:30:17;;;;;;;3.72;2.40;;;;;;;-148.56;100.00;61375.16;4948695;28;20533;-38
2022/03/30 00:32:43;;;;;;;3.20;2.20;;;;;;;-148.56;100.00;61375.16;4941189;28;20034;-37
2022/03/30 00:35:08;;;;;;;5.65;2.55;;;;;;;-148.56;100.00;61375.16;4954893;28;20037;-28
2022/03/30 00:37:35;;;;;;;3.22;2.17;;;;;;;-148.56;100.00;61375.16;4947278;28;20145;-36
2022/03/30 00:40:00;;;;;;;4.00;2.60;;;;;;;-148.56;100.00;61375.16;4951647;28;20030;-36
2022/03/30 00:42:26;;;;;;;3.65;2.20;;;;;;;-148.56;100.00;61375.16;4947537;28;20049;-33
2022/03/30 00:44:52;;;;;;;4.60;2.22;;;;;;;-148.56;100.00;61375.16;4956479;28;20711;-32
2022/03/30 00:47:22;;;;;;;4.03;2.58;;;;;;;-148.56;100.00;61375.16;4959608;28;20042;-34
2022/03/30 00:49:48;;;;;;;3.33;2.10;;;;;;;-148.56;100.00;61375.16;4966634;28;20038;-30
2022/03/30 00:52:13;;;;;;;5.22;2.38;;;;;;;-148.56;100.00;61375.16;4960610;28;20030;-31
2022/03/30 00:54:40;;;;;;;4.57;2.40;;;;;;;-148.56;100.00;61375.16;4965058;28;20042;-36
2022/03/30 00:57:06;;;;;;;3.33;1.92;;;;;;;-148.56;100.00;61375.16;4969071;28;20039;-32
2022/03/30 00:59:32;;;;;;;2.55;2.17;;;;;;;-148.56;100.00;61375.16;4932369;28;20069;-36
2022/03/30 01:01:59;;;;;;;4.03;2.00;;;;;;;-148.56;100.00;61375.16;4959229;28;20070;-32
2022/03/30 01:04:25;;;;;;;3.92;2.35;;;;;;;-148.56;100.00;61375.16;4964074;28;20030;-32
2022/03/30 01:06:51;;;;;;;5.32;2.13;;;;;;;-148.56;100.00;61375.16;4944523;28;20034;-32
2022/03/30 01:09:16;;;;;;;3.72;2.42;;;;;;;-148.56;100.00;61375.16;4964493;28;20559;-31
2022/03/30 01:11:42;;;;;;;3.53;2.35;;;;;;;-148.56;100.00;61375.16;4965956;28;20493;-35
2022/03/30 01:14:07;;;;;;;4.20;2.30;;;;;;;-148.56;100.00;61375.16;4966062;28;20038;-32
2022/03/30 01:16:33;;;;;;;9.98;2.30;;;;;;;-148.56;100.00;61375.16;4947420;28;20042;-30
2022/03/30 01:19:06;;;;;;;3.30;2.17;;;;;;;-148.56;100.00;61375.16;4966403;28;20995;-35
2022/03/30 01:21:32;;;;;;;5.45;2.40;;;;;;;-148.56;100.00;61375.16;4964135;28;20038;-35
2022/03/30 01:23:57;;;;;;;3.10;2.20;;;;;;;-148.56;100.00;61375.16;4970292;28;20125;-35
2022/03/30 01:26:25;;;;;;;4.00;2.30;;;;;;;-148.56;100.00;61375.16;4965300;28;20571;-32
2022/03/30 01:28:50;;;;;;;2.90;2.10;;;;;;;-148.56;100.00;61375.16;4968647;28;20664;-32
2022/03/30 01:34:00;;;;;;;4.07;2.20;;;;;;;-148.56;100.00;61375.16;4970936;28;20066;-34
2022/03/30 01:36:25;;;;;;;4.78;2.40;;;;;;;-148.56;100.00;61375.16;4965656;28;20031;-32
2022/03/30 01:38:51;;;;;;;2.85;2.03;;;;;;;-148.56;100.00;61375.16;4968185;28;20100;-36
2022/03/30 01:41:16;;;;;;;5.72;2.40;;;;;;;-148.56;100.00;61375.16;4966580;28;20109;-31
2022/03/30 01:43:42;;;;;;;3.90;2.38;;;;;;;-148.56;100.00;61375.16;4965324;28;21209;-30
2022/03/30 01:46:07;;;;;;;3.10;2.38;;;;;;;-148.56;100.00;61375.16;4932676;28;21059;-35
2022/03/30 01:48:32;;;;;;;2.60;2.10;;;;;;;-148.56;100.00;61375.16;4923793;28;20043;-30
2022/03/30 01:50:59;;;;;;;3.28;2.35;;;;;;;-148.56;100.00;61375.16;4926090;28;20027;-34
2022/03/30 01:53:25;;;;;;;2.67;2.03;;;;;;;-148.56;100.00;61375.16;4929128;28;20084;-32
2022/03/30 01:55:51;;;;;;;2.78;2.15;;;;;;;-148.56;100.00;61375.16;4926851;28;20038;-32
2022/03/30 01:58:17;;;;;;;2.60;2.08;;;;;;;-148.56;100.00;61375.16;4929537;28;20777;-32
2022/03/30 02:00:42;;;;;;;6.35;2.20;;;;;;;-148.56;100.00;61375.16;4930095;28;20034;-33
2022/03/30 02:03:08;;;;;;;2.92;2.00;;;;;;;-148.56;100.00;61375.16;4923403;28;20609;-30
2022/03/30 02:05:33;;;;;;;3.90;2.40;;;;;;;-148.56;100.00;61375.16;4938811;28;20030;-29
2022/03/30 02:07:59;;;;;;;3.50;2.20;;;;;;;-148.56;100.00;61375.16;4967347;28;20037;-41
2022/03/30 02:10:24;;;;;;;3.63;2.35;;;;;;;-148.56;100.00;61375.16;4969702;28;20045;-32
2022/03/30 02:12:50;;;;;;;4.20;2.35;;;;;;;-148.56;100.00;61375.16;4958397;28;20034;-36
2022/03/30 02:15:15;;;;;;;3.50;2.25;;;;;;;-148.56;100.00;61375.16;4928338;28;20041;-29
2022/03/30 02:17:40;;;;;;;2.83;1.77;;;;;;;-148.56;100.00;61375.16;4929752;28;20077;-35
2022/03/30 02:20:07;;;;;;;5.00;2.17;;;;;;;-148.56;100.00;61375.16;4929615;28;20073;-35
2022/03/30 02:22:32;;;;;;;3.33;2.10;;;;;;;-148.56;100.00;61375.16;4923819;28;20031;-29
2022/03/30 02:24:57;;;;;;;3.38;2.30;;;;;;;-148.56;100.00;61375.16;4927590;28;20065;-38
2022/03/30 02:27:23;;;;;;;3.75;2.20;;;;;;;-148.56;100.00;61375.16;4930378;28;20034;-34
2022/03/30 02:29:49;;;;;;;2.55;1.88;;;;;;;-148.56;100.00;61375.16;4923973;28;20038;-30
2022/03/30 02:32:14;;;;;;;3.30;1.73;;;;;;;-148.56;100.00;61375.16;4947531;28;20046;-34
2022/03/30 02:34:41;;;;;;;5.82;2.20;;;;;;;-148.56;100.00;61375.16;4921876;28;20034;-37
2022/03/30 02:37:06;;;;;;;3.25;2.20;;;;;;;-148.56;100.00;61375.16;4953787;28;20030;-35
2022/03/30 02:39:31;;;;;;;2.40;1.58;;;;;;;-148.56;100.00;61375.16;4964438;28;20034;-37
2022/03/30 02:41:57;;;;;;;3.70;2.15;;;;;;;-148.56;100.00;61375.16;4960415;28;20058;-34
2022/03/30 02:44:22;;;;;;;4.63;2.20;;;;;;;-148.56;100.00;61375.16;4956265;28;20026;-34
2022/03/30 02:46:48;;;;;;;3.55;2.00;;;;;;;-148.56;100.00;61375.16;4959259;28;20480;-39
2022/03/30 02:49:14;;;;;;;3.30;2.10;;;;;;;-148.56;100.00;61375.16;4965199;28;20022;-36
2022/03/30 02:51:40;;;;;;;4.03;2.10;;;;;;;-148.56;100.00;61375.16;4964740;28;20027;-33
2022/03/30 02:54:05;;;;;;;4.78;2.00;;;;;;;-148.56;100.00;61375.16;4962524;28;20026;-32
2022/03/30 02:56:31;;;;;;;3.15;2.00;;;;;;;-148.56;100.00;61375.16;4966895;28;20154;-32
2022/03/30 02:58:56;;;;;;;4.13;2.35;;;;;;;-148.56;100.00;61375.16;4966864;28;20137;-34
2022/03/30 03:01:21;;;;;;;3.10;2.10;;;;;;;-148.56;100.00;61375.16;4963409;28;20779;-33
2022/03/30 03:03:47;;;;;;;4.03;1.90;;;;;;;-148.56;100.00;61375.16;4959605;28;20030;-34
2022/03/30 03:06:12;;;;;;;3.08;2.22;;;;;;;-148.56;100.00;61375.16;4969902;28;20104;-36
2022/03/30 03:08:38;;;;;;;3.15;2.28;;;;;;;-148.56;100.00;61375.16;4962768;28;20031;-34
2022/03/30 03:11:03;;;;;;;2.72;1.95;;;;;;;-148.56;100.00;61375.16;4962994;28;20790;-30
2022/03/30 03:13:28;;;;;;;3.58;2.17;;;;;;;-148.56;100.00;61375.16;4965711;28;20092;-33
2022/03/30 03:15:54;;;;;;;2.58;1.98;;;;;;;-148.56;100.00;61375.16;4964655;28;20031;-34
2022/03/30 03:18:19;;;;;;;2.72;1.83;;;;;;;-148.56;100.00;61375.16;4961413;28;20081;-33
2022/03/30 03:20:45;;;;;;;4.10;2.10;;;;;;;-148.56;100.00;61375.16;4962051;28;20035;-31
2022/03/30 03:23:11;;;;;;;3.03;2.10;;;;;;;-148.56;100.00;61375.16;4963788;28;20038;-36
2022/03/30 03:25:37;;;;;;;3.25;1.83;;;;;;;-148.56;100.00;61375.16;4963817;28;20022;-36
2022/03/30 03:28:03;;;;;;;2.78;1.85;;;;;;;-148.56;100.00;61375.16;4966516;28;20703;-34
2022/03/30 03:30:29;;;;;;;2.30;1.90;;;;;;;-148.56;100.00;61375.16;4966531;28;20033;-39
2022/03/30 03:32:54;;;;;;;2.95;2.30;;;;;;;-148.56;100.00;61375.16;4959205;28;20042;-33
2022/03/30 03:35:20;;;;;;;2.85;2.13;;;;;;;-148.56;100.00;61375.16;4966608;28;20512;-34
2022/03/30 03:37:45;;;;;;;2.35;1.80;;;;;;;-148.56;100.00;61375.16;4960564;28;20046;-35
2022/03/30 03:40:11;;;;;;;2.95;1.90;;;;;;;-148.56;100.00;61375.16;4962509;28;20030;-34
2022/03/30 03:42:37;;;;;;;3.88;1.80;;;;;;;-148.56;100.00;61375.16;4958435;28;20054;-32
2022/03/30 03:45:03;;;;;;;3.05;1.98;;;;;;;-148.56;100.00;61375.16;4959111;28;20044;-37
2022/03/30 03:47:28;;;;;;;2.13;1.77;;;;;;;-148.56;100.00;61375.16;4961758;28;20028;-29
2022/03/30 03:49:54;;;;;;;3.03;1.90;;;;;;;-148.56;100.00;61375.16;4952933;28;20117;-33
2022/03/30 03:52:19;;;;;;;3.35;2.15;;;;;;;-148.56;100.00;61375.16;4952559;28;20607;-33
2022/03/30 03:54:45;;;;;;;3.10;1.90;;;;;;;-148.56;100.00;61375.16;4963145;28;20054;-32
2022/03/30 03:57:10;;;;;;;2.72;2.03;;;;;;;-148.56;100.00;61375.16;4964585;28;20564;-34
2022/03/30 03:59:36;;;;;;;2.33;1.85;;;;;;;-148.56;100.00;61375.16;4965557;28;20042;-36
2022/03/30 04:02:04;;;;;;;2.33;1.80;;;;;;;-148.56;100.00;61375.16;4948318;28;20082;-33
2022/03/30 04:04:29;;;;;;;2.85;1.98;;;;;;;-148.56;100.00;61375.16;4963653;28;20126;-29
2022/03/30 04:06:55;;;;;;;2.22;1.88;;;;;;;-148.56;100.00;61375.16;4962296;28;20022;-28
2022/03/30 04:09:20;;;;;;;2.42;1.90;;;;;;;-148.56;100.00;61375.16;4966317;28;20036;-34
2022/03/30 04:11:45;;;;;;;2.45;1.90;;;;;;;-148.56;100.00;61375.16;4962520;28;20030;-31
2022/03/30 04:14:11;;;;;;;2.65;1.80;;;;;;;-148.56;100.00;61375.16;4961304;28;20090;-31
2022/03/30 04:16:36;;;;;;;3.67;1.80;;;;;;;-148.56;100.00;61375.16;4961276;28;20035;-34
2022/03/30 04:19:02;;;;;;;4.38;1.85;;;;;;;-148.56;100.00;61375.16;4962696;28;20092;-34
2022/03/30 04:21:27;;;;;;;2.83;1.83;;;;;;;-148.56;100.00;61375.16;4960162;28;20104;-33
2022/03/30 04:23:53;;;;;;;3.05;1.75;;;;;;;-148.56;100.00;61375.16;4963341;28;20565;-31
2022/03/30 04:26:18;;;;;;;3.35;1.80;;;;;;;-148.56;100.00;61375.16;4963547;28;20030;-36
2022/03/30 04:28:44;;;;;;;3.53;1.90;;;;;;;-148.56;100.00;61375.16;4962083;28;20440;-30
2022/03/30 04:31:10;;;;;;;2.83;1.95;;;;;;;-148.56;100.00;61375.16;4959317;28;20042;-31
2022/03/30 04:33:36;;;;;;;2.00;1.67;;;;;;;-148.56;100.00;61375.16;4958876;28;20997;-33
2022/03/30 04:36:02;;;;;;;2.88;1.60;;;;;;;-148.56;100.00;61375.16;4962680;28;20035;-32
2022/03/30 04:38:27;;;;;;;2.40;1.67;;;;;;;-148.56;100.00;61375.16;4959416;28;20030;-33
2022/03/30 04:40:52;;;;;;;3.92;1.92;;;;;;;-148.56;100.00;61375.16;4959124;28;20037;-30
2022/03/30 04:43:18;;;;;;;2.85;1.80;;;;;;;-148.56;100.00;61375.16;4965977;28;20093;-32
2022/03/30 04:45:43;;;;;;;1.73;1.40;;;;;;;-148.56;100.00;61375.16;4958252;28;20070;-35
2022/03/30 04:48:09;;;;;;;2.42;1.80;;;;;;;-148.56;100.00;61375.16;4969028;28;20038;-31
2022/03/30 04:50:34;;;;;;;2.40;1.90;;;;;;;-148.56;100.00;61375.16;4965868;28;20748;-36
2022/03/30 04:53:00;;;;;;;3.10;1.80;;;;;;;-148.56;100.00;61375.16;4959538;28;20038;-33
2022/03/30 04:55:26;;;;;;;2.58;1.80;;;;;;;-148.56;100.00;61375.16;4963623;28;20034;-34
2022/03/30 04:57:52;;;;;;;2.65;1.63;;;;;;;-148.56;100.00;61375.16;4970314;28;20034;-33
2022/03/30 05:00:17;;;;;;;2.42;1.67;;;;;;;-148.56;100.00;61375.16;4960771;28;20034;-32
2022/03/30 05:02:43;;;;;;;2.65;1.90;;;;;;;-148.56;100.00;61375.16;4963077;28;20040;-33
2022/03/30 05:05:09;;;;;;;2.25;1.67;;;;;;;-148.56;100.00;61375.16;4961957;28;20878;-32
2022/03/30 05:07:35;;;;;;;2.50;1.88;;;;;;;-148.56;100.00;61375.16;4950087;28;20026;-30
2022/03/30 05:10:00;;;;;;;2.33;1.90;;;;;;;-148.56;100.00;61375.16;4968554;28;20107;-31
2022/03/30 05:12:26;;;;;;;2.67;1.60;;;;;;;-148.56;100.00;61375.16;4963617;28;20670;-31
2022/03/30 05:14:52;;;;;;;2.22;1.60;;;;;;;-148.56;100.00;61375.16;4961080;28;20034;-34
2022/03/30 05:17:17;;;;;;;2.58;1.55;;;;;;;-148.56;100.00;61375.16;4968793;28;20040;-32
2022/03/30 05:19:44;;;;;;;2.65;1.92;;;;;;;-148.56;100.00;61375.16;4966987;28;20038;-34
2022/03/30 05:22:10;;;;;;;3.05;1.70;;;;;;;-148.56;100.00;61375.16;4962876;28;20088;-35
2022/03/30 05:24:36;;;;;;;2.40;1.70;;;;;;;-148.56;100.00;61375.16;4966099;28;20084;-34
2022/03/30 05:27:01;;;;;;;2.78;1.90;;;;;;;-148.56;100.00;61375.16;4967575;28;20027;-36
2022/03/30 05:29:27;;;;;;;2.65;1.65;;;;;;;-148.56;100.00;61375.16;4960032;28;20015;-35
2022/03/30 05:31:52;;;;;;;3.95;1.70;;;;;;;-148.56;100.00;61375.16;4966719;28;20027;-34
2022/03/30 05:34:17;;;;;;;3.22;2.17;;;;;;;-148.56;100.00;61375.16;4967935;28;20489;-32
2022/03/30 05:36:43;;;;;;;3.40;1.92;;;;;;;-148.56;100.00;61375.16;4962165;28;20022;-28
2022/03/30 05:39:09;;;;;;;3.17;1.75;;;;;;;-148.56;100.00;61375.16;4965239;28;20064;-36
2022/03/30 05:41:34;;;;;;;1.70;1.45;;;;;;;-148.56;100.00;61375.16;4966093;28;20042;-33
2022/03/30 05:44:00;;;;;;;2.60;1.70;;;;;;;-148.56;100.00;61375.16;4959267;28;20031;-31
2022/03/30 05:46:26;;;;;;;2.45;1.58;;;;;;;-148.56;100.00;61375.16;4963999;28;20519;-31
2022/03/30 05:48:51;;;;;;;2.35;1.77;;;;;;;-148.56;100.00;61375.16;4963328;28;20039;-32
2022/03/30 05:51:17;;;;;;;2.67;1.58;;;;;;;-148.56;100.00;61375.16;4963384;28;20340;-29
2022/03/30 05:53:42;;;;;;;2.30;1.60;;;;;;;-148.56;100.00;61375.16;4967769;28;20034;-31
2022/03/30 05:56:07;;;;;;;1.75;1.42;;;;;;;-148.56;100.00;61375.16;4966782;28;20042;-34
2022/03/30 05:58:33;;;;;;;2.10;1.40;;;;;;;-148.56;100.00;61375.16;4963935;28;20084;-34
2022/03/30 06:00:58;;;;;;;2.20;1.73;;;;;;;-148.56;100.00;61375.16;4960098;28;20061;-28
2022/03/30 06:03:24;;;;;;;3.08;1.70;;;;;;;-148.56;100.00;61375.16;4961671;28;20046;-32
2022/03/30 06:05:50;;;;;;;2.50;1.67;;;;;;;-148.56;100.00;61375.16;4966184;28;20407;-32
2022/03/30 06:08:16;;;;;;;2.30;1.67;;;;;;;-148.56;100.00;61375.16;4958212;28;20030;-34
2022/03/30 06:10:41;;;;;;;2.00;1.60;;;;;;;-148.56;100.00;61375.16;4966225;28;20483;-35
2022/03/30 06:13:07;;;;;;;2.80;1.90;;;;;;;-148.56;100.00;61375.16;4965060;28;20038;-30
2022/03/30 06:15:32;;;;;;;2.40;1.77;;;;;;;-148.56;100.00;61375.16;4964441;28;20708;-36
2022/03/30 06:17:58;;;;;;;11.82;3.67;;;;;;;-148.56;100.00;61375.16;4964440;28;20397;-31
2022/03/30 06:20:24;;;;;;;7.30;2.80;;;;;;;-148.56;100.00;61375.16;4948378;28;20058;-31
2022/03/30 06:22:51;;;;;;;3.47;2.00;;;;;;;-148.56;100.00;61375.16;4960342;28;20041;-36
2022/03/30 06:25:17;;;;;;;3.88;2.22;;;;;;;-148.56;100.00;61375.16;4965444;28;20035;-34
2022/03/30 06:27:42;;;;;;;3.10;1.80;;;;;;;-148.56;100.00;61375.16;4948936;28;20033;-33
2022/03/30 06:30:09;;;;;;;3.17;2.10;;;;;;;-148.56;100.00;61375.16;4961426;28;20030;-32
2022/03/30 06:32:35;;;;;;;8.38;2.60;;;;;;;-148.56;100.00;61375.16;4965747;28;20548;-31
2022/03/30 06:35:02;;;;;;;4.85;2.50;;;;;;;-148.56;100.00;61375.16;4959664;28;20117;-32
2022/03/30 06:37:27;;;;;;;9.10;2.60;;;;;;;-148.56;100.00;61375.16;4957199;28;20389;-30
2022/03/30 06:39:52;;;;;;;9.02;2.92;;;;;;;-148.56;100.00;61375.16;4961895;28;20044;-33
2022/03/30 06:42:18;;;;;;;10.23;3.70;;;;;;;-148.56;100.00;61375.16;4952968;28;20035;-36
2022/03/30 06:44:44;;;;;;;12.20;3.70;;;;;;;-148.56;100.00;61375.16;4950727;28;20752;-33
2022/03/30 06:47:09;;;;;;;11.27;3.53;;;;;;;-148.56;100.00;61375.16;4951204;28;20484;-33
2022/03/30 06:49:36;;;;;;;6.53;3.00;;;;;;;-148.56;100.00;61375.16;4955196;28;20022;-33
2022/03/30 06:52:03;;;;;;;16.27;3.35;;;;;;;-148.56;100.00;61375.16;4951975;28;20033;-30
2022/03/30 06:54:29;;;;;;;7.18;3.00;;;;;;;-148.56;100.00;61375.16;4960437;28;20041;-28
2022/03/30 06:56:54;;;;;;;8.90;3.35;;;;;;;-148.56;100.00;61375.16;4964617;28;20023;-30
2022/03/30 06:59:20;;;;;;;6.57;3.22;;;;;;;-148.56;100.00;61375.16;4958420;28;20038;-32
2022/03/30 07:01:45;;;;;;;11.95;3.20;;;;;;;-148.56;100.00;61375.16;4960884;28;20123;-32
2022/03/30 07:04:11;;;;;;;7.47;3.35;;;;;;;-148.56;100.00;61375.16;4962337;28;20039;-33
2022/03/30 07:06:36;;;;;;;7.88;3.92;;;;;;;-148.56;100.00;61375.16;4963937;28;20034;-33
2022/03/30 07:11:45;;;;;;;12.05;3.83;;;;;;;-148.56;100.00;61375.16;4961402;28;20049;-30
2022/03/30 07:14:11;;;;;;;15.25;3.47;;;;;;;-148.56;100.00;61375.16;4941970;28;20400;-32
2022/03/30 07:16:36;;;;;;;10.27;3.88;;;;;;;-148.56;100.00;61375.16;4960495;28;20037;-35
2022/03/30 07:19:01;;;;;;;12.50;3.65;;;;;;;-148.56;100.00;61375.16;4958983;28;20843;-32
2022/03/30 07:21:27;;;;;;;7.82;3.45;;;;;;;-148.56;100.00;61375.16;4956809;28;20041;-36
2022/03/30 07:23:52;;;;;;;9.90;3.67;;;;;;;-148.56;100.00;61375.16;4961942;28;20041;-33
2022/03/30 07:26:18;;;;;;;6.25;3.20;;;;;;;-148.56;100.00;61375.16;4959060;28;20034;-36
2022/03/30 07:28:43;;;;;;;13.45;3.95;;;;;;;-148.56;100.00;61375.16;4961161;28;20038;-34
2022/03/30 07:31:09;;;;;;;8.15;3.20;;;;;;;-148.56;100.00;61375.16;4961051;28;20023;-35
2022/03/30 07:33:34;;;;;;;6.78;3.25;;;;;;;-148.56;100.00;61375.16;4951501;28;20180;-33
2022/03/30 07:36:00;;;;;;;10.50;3.60;;;;;;;-148.56;100.00;61375.16;4952718;28;20108;-33
2022/03/30 07:38:25;;;;;;;8.70;3.38;;;;;;;-148.56;100.00;61375.16;4952292;28;20837;-29
2022/03/30 07:40:51;;;;;;;10.32;3.50;;;;;;;-148.56;100.00;61375.16;4929721;28;20042;-29
2022/03/30 07:43:16;;;;;;;7.25;3.22;;;;;;;-148.56;100.00;61375.16;4949205;28;20034;-35
2022/03/30 07:45:42;;;;;;;6.22;3.13;;;;;;;-148.56;100.00;61375.16;4952772;28;20039;-34
2022/03/30 07:48:12;;;;;;;6.95;2.85;;;;;;;-148.56;100.00;61375.16;4956461;28;20030;-33
2022/03/30 07:50:37;;;;;;;6.53;3.38;;;;;;;-148.56;100.00;61375.16;4952869;28;20026;-36
2022/03/30 07:53:07;;;;;;;7.50;3.00;;;;;;;-148.56;100.00;61375.16;4932508;28;20050;-36
2022/03/30 07:55:34;;;;;;;8.25;3.35;;;;;;;-148.56;100.00;61375.16;4953119;28;20038;-36
2022/03/30 07:58:00;;;;;;;8.55;3.00;;;;;;;-148.56;100.00;61375.16;4950118;28;20657;-34
2022/03/30 08:00:26;;;;;;;5.80;3.00;;;;;;;-148.56;100.00;61375.16;4933172;28;20041;-35
2022/03/30 08:02:52;;;;;;;9.23;3.45;;;;;;;-148.56;100.00;61375.16;4951473;28;20031;-34
2022/03/30 08:05:17;;;;;;;7.07;3.20;;;;;;;-148.56;100.00;61375.16;4951863;28;20033;-31
2022/03/30 08:07:43;;;;;;;7.32;3.10;;;;;;;-148.56;100.00;61375.16;4949908;28;20029;-36
2022/03/30 08:10:09;;;;;;;12.63;3.33;;;;;;;-148.56;100.00;61375.16;4952287;28;20026;-31
2022/03/30 08:12:38;;;;;;;6.70;3.10;;;;;;;-148.56;100.00;61375.16;4953448;28;20038;-30
2022/03/30 08:15:04;;;;;;;7.45;3.17;;;;;;;-148.56;100.00;61375.16;4956349;28;20137;-34
2022/03/30 08:17:29;;;;;;;5.63;2.85;;;;;;;-148.56;100.00;61375.16;4954900;28;20042;-36
2022/03/30 08:19:57;;;;;;;9.30;2.97;;;;;;;-148.56;100.00;61375.16;4950085;28;20397;-36
2022/03/30 08:22:27;;;;;;;5.97;3.25;;;;;;;-148.56;100.00;61375.16;4953952;28;20030;-37
2022/03/30 08:24:53;;;;;;;30.75;6.30;;;;;;;-148.56;100.00;61375.16;4942917;28;20038;-33
2022/03/30 08:27:20;;;;;;;32.63;7.70;;;;;;;-148.56;100.00;61375.16;4952340;28;20031;-32
2022/03/30 08:29:46;;;;;;;31.95;8.30;;;;;;;-148.56;100.00;61375.16;4952218;28;20113;-34
2022/03/30 08:32:12;;;;;;;39.15;9.95;;;;;;;-148.56;100.00;61375.16;4955556;28;20034;-33
2022/03/30 08:34:38;;;;;;;38.55;8.80;;;;;;;-148.56;100.00;61375.16;4957284;28;20109;-36
2022/03/30 08:37:04;;;;;;;31.08;7.80;;;;;;;-148.56;100.00;61375.16;4933607;28;20027;-36
2022/03/30 08:39:29;;;;;;;27.58;7.55;;;;;;;-148.56;100.00;61375.16;4954390;28;20036;-29
2022/03/30 08:41:55;;;;;;;30.08;8.18;;;;;;;-148.56;100.00;61375.16;4954238;28;20565;-34
2022/03/30 08:44:21;;;;;;;31.85;8.02;;;;;;;-148.56;100.00;61375.16;4953884;28;20031;-34
2022/03/30 08:46:47;;;;;;;30.38;7.93;;;;;;;-148.56;100.00;61375.16;4956858;28;20473;-34
2022/03/30 08:49:16;;;;;;;20.13;6.72;;;;;;;-148.56;100.00;61375.16;4956223;28;20038;-33
2022/03/30 08:51:42;;;;;;;24.67;7.10;;;;;;;-148.56;100.00;61375.16;4954782;28;20030;-34
2022/03/30 08:54:12;;;;;;;20.50;6.55;;;;;;;-148.56;100.00;61375.16;4949076;28;20256;-29
2022/03/30 08:56:39;;;;;;;24.30;7.15;;;;;;;-148.56;100.00;61375.16;4958941;28;20089;-30
2022/03/30 08:59:06;;;;;;;19.55;6.47;;;;;;;-148.56;100.00;61375.16;4957889;28;20033;-28
2022/03/30 09:01:33;;;;;;;17.17;5.93;;;;;;;-148.56;100.00;61375.16;4954615;28;20027;-37
2022/03/30 09:03:59;;;;;;;23.95;6.32;;;;;;;-148.56;100.00;61375.16;4956568;28;20030;-32
2022/03/30 09:06:49;;;;;;;18.73;6.22;;;;;;;-148.56;100.00;61375.16;4955518;28;20031;-25
2022/03/30 09:09:15;;;;;;;29.45;5.68;;;;;;;-148.56;100.00;61375.16;4945136;28;20034;-32
2022/03/30 09:11:41;;;;;;;20.75;5.75;;;;;;;-148.56;100.00;61375.16;4954677;28;20030;-36
2022/03/30 09:14:08;;;;;;;20.75;6.10;;;;;;;-148.56;100.00;61375.16;4957768;28;20040;-35
2022/03/30 09:16:59;;;;;;;28.48;6.43;;;;;;;-148.56;100.00;61375.16;4955816;28;20633;-33
2022/03/30 09:19:25;;;;;;;22.15;6.45;;;;;;;-148.56;100.00;61375.16;4960030;28;20034;-33
2022/03/30 09:21:55;;;;;;;20.83;6.28;;;;;;;-148.56;100.00;61375.16;4956766;28;20969;-29
2022/03/30 09:24:23;;;;;;;21.83;6.43;;;;;;;-148.56;100.00;61375.16;4947508;28;20057;-32
2022/03/30 09:26:50;;;;;;;29.27;6.22;;;;;;;-148.56;100.00;61375.16;4961504;28;20034;-33
2022/03/30 09:29:16;;;;;;;18.73;6.20;;;;;;;-148.56;100.00;61375.16;4960737;28;20564;-27
2022/03/30 09:31:42;;;;;;;22.65;6.68;;;;;;;-148.56;100.00;61375.16;4951616;28;20035;-35
2022/03/30 09:34:09;;;;;;;25.00;7.13;;;;;;;-148.56;100.00;61375.16;4959928;28;20034;-32
2022/03/30 09:36:39;;;;;;;21.80;6.18;;;;;;;-148.56;100.00;61375.16;4963547;28;20030;-29
2022/03/30 09:39:05;;;;;;;15.70;5.55;;;;;;;-148.56;100.00;61375.16;4963415;28;20030;-31
2022/03/30 09:41:59;;;;;;;15.60;5.50;;;;;;;-148.56;100.00;61375.16;4960067;28;20042;-33
2022/03/30 09:44:28;;;;;;;16.65;5.70;;;;;;;-148.56;100.00;61375.16;4957226;28;20186;-33
2022/03/30 09:47:05;;;;;;;16.85;6.53;;;;;;;-148.56;100.00;61375.16;4958599;28;20150;-31
2022/03/30 09:49:53;;;;;;;17.90;6.20;;;;;;;-148.56;100.00;61375.16;4961412;28;20501;-32
2022/03/30 09:52:22;;;;;;;18.00;5.80;;;;;;;-148.56;100.00;61375.16;4958548;28;20034;-32
2022/03/30 09:54:50;;;;;;;19.42;6.15;;;;;;;-148.56;100.00;61375.16;4942867;28;20039;-30
2022/03/30 09:57:38;;;;;;;14.07;5.95;;;;;;;-148.56;100.00;61375.16;4962292;28;20749;-32
2022/03/30 10:00:09;;;;;;;18.55;5.72;;;;;;;-148.56;100.00;61375.16;4958238;28;20034;-30
2022/03/30 10:02:44;;;;;;;15.50;6.03;;;;;;;-148.56;100.00;61375.16;4966641;28;20019;-31
2022/03/30 10:05:15;;;;;;;16.02;5.05;;;;;;;-148.56;100.00;61375.16;4962813;28;20140;-34
2022/03/30 10:07:40;;;;;;;18.65;5.60;;;;;;;-148.56;100.00;61375.16;4956597;28;20041;-30
2022/03/30 10:10:10;;;;;;;15.25;5.50;;;;;;;-148.56;100.00;61375.16;4963677;28;20038;-34
2022/03/30 10:12:36;;;;;;;17.73;5.55;;;;;;;-148.56;100.00;61375.16;4945266;28;21700;-34
2022/03/30 10:15:01;;;;;;;13.63;5.20;;;;;;;-148.56;100.00;61375.16;4961667;28;20030;-34
2022/03/30 10:17:29;;;;;;;14.40;4.78;;;;;;;-148.56;100.00;61375.16;4953432;28;20035;-31
2022/03/30 10:19:57;;;;;;;21.45;5.40;;;;;;;-148.56;100.00;61375.16;4939995;28;20530;-32
2022/03/30 10:22:33;;;;;;;19.85;5.38;;;;;;;-148.56;100.00;61375.16;4957438;28;20501;-35
2022/03/30 10:25:24;;;;;;;11.85;5.07;;;;;;;-148.56;100.00;61375.16;4940209;28;20043;-33
2022/03/30 10:28:11;;;;;;;13.27;4.87;;;;;;;-148.56;100.00;61375.16;4960123;28;20092;-33
2022/03/30 10:30:39;;;;;;;13.93;4.80;;;;;;;-148.56;100.00;61375.16;4959454;28;20034;-31
2022/03/30 10:33:04;;;;;;;18.67;5.32;;;;;;;-148.56;100.00;61375.16;4927539;28;20023;-31
2022/03/30 10:35:43;;;;;;;13.63;5.15;;;;;;;-148.56;100.00;61375.16;4961436;28;20031;-31
2022/03/30 10:38:09;;;;;;;10.20;4.25;;;;;;;-148.56;100.00;61375.16;4960272;28;20034;-33
2022/03/30 10:40:35;;;;;;;11.75;4.25;;;;;;;-148.56;100.00;61375.16;4942505;28;20481;-32
2022/03/30 10:43:05;;;;;;;14.00;4.63;;;;;;;-148.56;100.00;61375.16;4958121;28;20774;-35
2022/03/30 10:46:09;;;;;;;12.10;4.78;;;;;;;-148.56;100.00;61375.16;4958629;28;20510;-34
2022/03/30 10:48:36;;;;;;;14.95;4.55;;;;;;;-148.56;100.00;61375.16;4858894;29;20032;-33
2022/03/30 10:51:10;;;;;;;10.80;4.15;;;;;;;-148.56;100.00;61375.16;4865415;29;20150;-28
2022/03/30 10:53:41;;;;;;;11.18;4.18;;;;;;;-148.56;100.00;61375.16;4919559;28;20839;-36
2022/03/30 10:56:09;;;;;;;12.55;4.00;;;;;;;-148.56;100.00;61375.16;4971619;28;20038;-32
2022/03/30 10:58:35;;;;;;;10.00;3.53;;;;;;;-148.56;100.00;61375.16;4969442;28;20053;-33
2022/03/30 11:01:13;;;;;;;10.07;4.07;;;;;;;-148.56;100.00;61375.16;4953566;28;20040;-30
2022/03/30 11:04:18;;;;;;;8.38;3.70;;;;;;;-148.56;100.00;61375.16;4970079;28;20031;-34
2022/03/30 11:07:07;;;;;;;10.57;4.10;;;;;;;-148.56;100.00;61375.16;4967557;28;20033;-36
2022/03/30 11:09:34;;;;;;;18.63;3.83;;;;;;;-148.56;100.00;61375.16;4971270;28;20046;-31
2022/03/30 11:12:00;;;;;;;9.27;4.00;;;;;;;-148.56;100.00;61375.16;4967934;28;20052;-38